createdAt,value
2022-09-28T00:00:47.811Z,12.90
2022-09-28T00:03:14.464Z,13.48
2022-09-28T00:05:41.162Z,14.73
2022-09-28T00:08:07.882Z,15.55
2022-09-28T00:10:34.512Z,11.90
2022-09-28T00:13:01.759Z,13.10
2022-09-28T00:15:29.059Z,16.45
2022-09-28T00:17:55.710Z,15.05
2022-09-28T00:20:22.698Z,16.20
2022-09-28T00:22:49.472Z,14.50
2022-09-28T00:25:16.866Z,19.27
2022-09-28T00:27:49.132Z,18.30
2022-09-28T00:30:16.356Z,15.43
2022-09-28T00:35:09.867Z,15.45
2022-09-28T00:37:36.508Z,11.45
2022-09-28T00:40:03.784Z,14.55
2022-09-28T00:42:30.991Z,12.68
2022-09-28T00:44:58.604Z,14.88
2022-09-28T00:47:27.987Z,15.32
2022-09-28T00:50:00.471Z,17.13
2022-09-28T00:52:29.737Z,14.52
2022-09-28T00:54:57.594Z,13.82
2022-09-28T00:57:24.401Z,11.57
2022-09-28T00:59:52.056Z,12.95
2022-09-28T01:02:19.919Z,11.30
2022-09-28T01:04:47.381Z,11.15
2022-09-28T01:07:16.196Z,10.63
2022-09-28T01:09:44.756Z,13.43
2022-09-28T01:12:11.625Z,10.25
2022-09-28T01:14:40.356Z,13.98
2022-09-28T01:17:10.435Z,12.27
2022-09-28T01:20:11.848Z,12.80
2022-09-28T01:22:56.967Z,10.40
2022-09-28T01:25:42.344Z,8.43
2022-09-28T01:28:11.497Z,11.15
2022-09-28T01:30:47.042Z,12.02
2022-09-28T01:33:22.082Z,11.18
2022-09-28T01:36:07.672Z,8.50
2022-09-28T01:38:41.601Z,10.13
2022-09-28T01:41:10.103Z,11.32
2022-09-28T01:43:41.920Z,9.05
2022-09-28T01:46:20.287Z,8.05
2022-09-28T01:49:08.781Z,10.05
2022-09-28T01:51:50.254Z,10.20
2022-09-28T01:54:45.908Z,7.78
2022-09-28T01:57:15.451Z,8.88
2022-09-28T01:59:47.923Z,12.75
2022-09-28T02:02:23.293Z,11.65
2022-09-28T02:05:00.170Z,14.25
2022-09-28T02:07:37.665Z,11.70
2022-09-28T02:10:09.777Z,11.73
2022-09-28T02:12:44.027Z,10.25
2022-09-28T02:15:33.644Z,12.15
2022-09-28T02:18:00.655Z,15.20
2022-09-28T02:20:31.467Z,15.00
2022-09-28T02:23:01.383Z,13.07
2022-09-28T02:25:36.787Z,10.70
2022-09-28T02:28:10.087Z,12.75
2022-09-28T02:30:38.717Z,12.52
2022-09-28T02:33:25.768Z,11.18
2022-09-28T02:35:52.639Z,13.93
2022-09-28T02:38:21.203Z,15.85
2022-09-28T02:41:02.456Z,13.93
2022-09-28T02:43:48.498Z,12.50
2022-09-28T02:46:29.908Z,15.65
2022-09-28T02:49:46.111Z,15.65
2022-09-28T02:52:38.165Z,15.10
2022-09-28T02:55:23.681Z,14.93
2022-09-28T02:58:15.019Z,12.27
2022-09-28T03:00:49.762Z,17.60
2022-09-28T03:03:32.088Z,13.27
2022-09-28T03:06:09.255Z,14.63
2022-09-28T03:08:57.865Z,14.02
2022-09-28T03:11:57.951Z,11.88
2022-09-28T03:14:25.138Z,8.82
2022-09-28T03:16:55.839Z,12.68
2022-09-28T03:19:28.039Z,8.75
2022-09-28T03:21:55.549Z,9.45
2022-09-28T03:24:22.296Z,13.02
2022-09-28T03:26:49.643Z,9.35
2022-09-28T03:29:16.965Z,10.75
2022-09-28T03:31:47.784Z,10.43
2022-09-28T03:34:14.647Z,7.28
2022-09-28T03:36:42.889Z,9.40
2022-09-28T03:41:37.082Z,9.35
2022-09-28T03:44:04.135Z,9.23
2022-09-28T03:46:32.621Z,7.65
2022-09-28T03:49:05.038Z,7.28
2022-09-28T03:51:31.922Z,8.48
2022-09-28T03:53:58.598Z,9.07
2022-09-28T03:56:26.661Z,4.55
2022-09-28T03:58:53.438Z,6.57
2022-09-28T04:01:20.215Z,8.13
2022-09-28T04:06:14.459Z,5.15
2022-09-28T04:08:41.228Z,3.70
2022-09-28T04:11:08.739Z,6.10
2022-09-28T04:13:35.579Z,7.13
2022-09-28T04:16:05.627Z,9.05
2022-09-28T04:18:35.095Z,4.47
2022-09-28T04:21:21.082Z,7.20
2022-09-28T04:23:59.339Z,3.75
2022-09-28T04:26:27.405Z,7.57
2022-09-28T04:29:12.857Z,8.40
2022-09-28T04:31:41.350Z,3.05
2022-09-28T04:34:08.988Z,3.78
2022-09-28T04:36:35.673Z,7.88
2022-09-28T04:39:02.403Z,3.38
2022-09-28T04:41:30.820Z,5.88
2022-09-28T04:43:57.525Z,4.60
2022-09-28T04:46:26.167Z,9.63
2022-09-28T04:49:13.130Z,3.30
2022-09-28T04:51:53.657Z,7.50
2022-09-28T04:54:20.295Z,4.03
2022-09-28T04:56:46.939Z,2.83
2022-09-28T04:59:14.423Z,4.15
2022-09-28T05:01:42.408Z,6.70
2022-09-28T05:04:20.326Z,6.63
2022-09-28T05:07:11.722Z,2.97
2022-09-28T05:12:05.727Z,3.30
2022-09-28T05:14:32.380Z,4.28
2022-09-28T05:16:59.204Z,3.60
2022-09-28T05:19:26.041Z,5.43
2022-09-28T05:21:57.852Z,6.15
2022-09-28T05:24:25.124Z,4.30
2022-09-28T05:26:53.475Z,4.40
2022-09-28T05:29:20.287Z,3.92
2022-09-28T05:31:52.953Z,4.15
2022-09-28T05:34:38.218Z,4.43
2022-09-28T05:37:05.219Z,4.65
2022-09-28T05:39:31.892Z,7.75
2022-09-28T05:41:58.571Z,2.88
2022-09-28T05:44:25.822Z,3.72
2022-09-28T05:46:54.615Z,5.55
2022-09-28T05:49:21.256Z,4.53
2022-09-28T05:51:47.895Z,6.28
2022-09-28T05:54:14.862Z,6.07
2022-09-28T05:56:45.147Z,4.93
2022-09-28T05:59:12.199Z,6.60
2022-09-28T06:01:39.143Z,4.93
2022-09-28T06:04:08.998Z,3.60
2022-09-28T06:06:38.212Z,7.07
2022-09-28T06:09:04.895Z,5.15
2022-09-28T06:11:40.380Z,8.60
2022-09-28T06:14:22.181Z,4.07
2022-09-28T06:16:48.902Z,4.78
2022-09-28T06:19:16.582Z,5.05
2022-09-28T06:22:02.001Z,5.28
2022-09-28T06:24:30.421Z,5.13
2022-09-28T06:26:57.093Z,6.85
2022-09-28T06:29:23.753Z,5.85
2022-09-28T06:31:51.778Z,5.03
2022-09-28T06:34:18.975Z,3.58
2022-09-28T06:39:12.503Z,4.75
2022-09-28T06:41:40.297Z,4.03
2022-09-28T06:44:15.974Z,4.68
2022-09-28T06:47:11.977Z,5.80
2022-09-28T06:50:01.978Z,6.32
2022-09-28T06:52:51.018Z,6.78
2022-09-28T06:55:48.993Z,3.30
2022-09-28T06:58:19.441Z,1.98
2022-09-28T07:00:47.333Z,6.60
2022-09-28T07:03:16.428Z,3.50
2022-09-28T07:06:02.044Z,4.53
2022-09-28T07:08:43.475Z,5.32
2022-09-28T07:11:41.637Z,3.60
2022-09-28T07:14:24.651Z,4.00
2022-09-28T07:17:12.424Z,3.60
2022-09-28T07:19:40.960Z,3.95
2022-09-28T07:22:07.955Z,3.17
2022-09-28T07:24:34.702Z,4.75
2022-09-28T07:27:29.052Z,7.03
2022-09-28T07:30:13.209Z,6.15
2022-09-28T07:32:57.824Z,5.03
2022-09-28T07:35:50.635Z,6.70
2022-09-28T07:38:17.293Z,5.22
2022-09-28T07:41:02.605Z,7.95
2022-09-28T07:43:29.454Z,6.78
2022-09-28T07:45:56.290Z,6.60
2022-09-28T07:48:23.812Z,6.47
2022-09-28T07:51:10.041Z,4.63
2022-09-28T07:53:41.688Z,5.53
2022-09-28T07:56:17.391Z,6.13
2022-09-28T07:58:53.511Z,4.30
2022-09-28T08:01:38.913Z,6.63
2022-09-28T08:04:06.716Z,7.15
2022-09-28T08:06:35.354Z,7.43
2022-09-28T08:09:03.671Z,7.75
2022-09-28T08:11:50.285Z,5.15
2022-09-28T08:14:35.983Z,8.10
2022-09-28T08:17:22.908Z,3.95
2022-09-28T08:20:13.006Z,4.85
2022-09-28T08:22:40.172Z,3.40
2022-09-28T08:25:07.416Z,5.70
2022-09-28T08:27:34.135Z,5.20
2022-09-28T08:30:01.835Z,3.97
2022-09-28T08:33:07.689Z,4.10
2022-09-28T08:35:43.645Z,5.75
2022-09-28T08:38:20.254Z,4.30
2022-09-28T08:41:22.419Z,3.10
2022-09-28T08:44:23.923Z,4.35
2022-09-28T08:47:33.620Z,3.67
2022-09-28T08:50:27.964Z,3.15
2022-09-28T08:53:31.379Z,5.55
2022-09-28T08:56:39.176Z,4.30
2022-09-28T08:59:12.832Z,5.72
2022-09-28T09:01:47.570Z,2.30
2022-09-28T09:04:16.414Z,1.08
2022-09-28T09:07:03.281Z,2.03
2022-09-28T09:09:48.969Z,2.95
2022-09-28T09:12:48.766Z,1.90
2022-09-28T09:15:39.759Z,3.30
2022-09-28T09:18:34.545Z,3.53
2022-09-28T09:21:15.613Z,7.72
2022-09-28T09:23:55.134Z,4.13
2022-09-28T09:26:35.916Z,4.50
2022-09-28T09:29:27.471Z,5.40
2022-09-28T09:32:18.286Z,2.75
2022-09-28T09:34:48.877Z,1.27
2022-09-28T09:38:12.652Z,0.40
2022-09-28T09:41:05.298Z,1.08
2022-09-28T09:44:27.391Z,1.17
2022-09-28T09:47:11.442Z,0.60
2022-09-28T09:49:57.118Z,2.78
2022-09-28T09:52:42.331Z,2.58
2022-09-28T09:55:10.997Z,2.15
2022-09-28T09:58:22.757Z,1.08
2022-09-28T10:03:48.156Z,0.22
2022-09-28T10:06:32.811Z,1.83
2022-09-28T10:09:06.435Z,0.38
2022-09-28T10:11:48.811Z,2.83
2022-09-28T10:14:22.098Z,0.75
2022-09-28T10:17:14.872Z,1.58
2022-09-28T10:20:00.480Z,1.98
2022-09-28T10:22:57.866Z,0.90
2022-09-28T10:25:25.339Z,0.45
2022-09-28T10:27:52.569Z,0.68
2022-09-28T10:30:23.435Z,0.75
2022-09-28T10:32:53.571Z,2.50
2022-09-28T10:35:24.931Z,0.88
2022-09-28T10:38:25.939Z,0.40
2022-09-28T10:40:59.449Z,0.93
2022-09-28T10:43:50.713Z,1.60
2022-09-28T10:46:24.134Z,4.00
2022-09-28T10:49:05.410Z,1.42
2022-09-28T10:51:58.687Z,1.75
2022-09-28T10:54:31.253Z,0.50
2022-09-28T10:57:00.165Z,0.35
2022-09-28T10:59:47.848Z,1.65
2022-09-28T11:02:40.109Z,1.13
2022-09-28T11:05:22.367Z,1.92
2022-09-28T11:07:52.257Z,2.97
2022-09-28T11:15:34.220Z,1.33
2022-09-28T11:18:33.609Z,3.50
2022-09-28T11:21:23.604Z,2.35
2022-09-28T11:24:08.213Z,3.20
2022-09-28T11:26:43.649Z,2.15
2022-09-28T11:29:37.348Z,3.17
2022-09-28T11:32:41.780Z,2.40
2022-09-28T11:35:24.892Z,2.83
2022-09-28T11:38:14.785Z,1.67
2022-09-28T11:41:30.001Z,2.85
2022-09-28T11:43:56.765Z,2.83
2022-09-28T11:46:46.062Z,2.05
2022-09-28T11:49:41.250Z,3.25
2022-09-28T11:52:20.408Z,2.70
2022-09-28T11:55:01.042Z,2.25
2022-09-28T11:57:34.222Z,0.30
2022-09-28T12:00:22.318Z,1.35
2022-09-28T12:03:04.078Z,0.45
2022-09-28T12:05:37.020Z,0.82
2022-09-28T12:08:19.150Z,4.88
2022-09-28T12:11:09.768Z,1.27
2022-09-28T12:14:30.652Z,2.20
2022-09-28T12:17:19.324Z,1.52
2022-09-28T12:19:56.603Z,6.13
2022-09-28T12:22:45.724Z,4.18
2022-09-28T12:25:20.880Z,4.18
2022-09-28T12:27:53.492Z,9.23
2022-09-28T12:30:25.723Z,7.93
2022-09-28T12:33:06.780Z,13.73
2022-09-28T12:35:48.472Z,13.20
2022-09-28T12:39:14.753Z,5.82
2022-09-28T12:41:57.558Z,7.03
2022-09-28T12:44:37.349Z,5.45
2022-09-28T12:47:25.626Z,6.15
2022-09-28T12:53:03.075Z,2.22
2022-09-28T12:55:39.778Z,3.28
2022-09-28T12:58:36.448Z,4.32
2022-09-28T13:01:15.250Z,3.25
2022-09-28T13:04:11.418Z,3.72
2022-09-28T13:06:46.000Z,5.97
2022-09-28T13:09:27.598Z,7.15
2022-09-28T13:11:58.650Z,3.33
2022-09-28T13:14:53.875Z,2.95
2022-09-28T13:17:40.762Z,4.43
2022-09-28T13:20:32.826Z,2.40
2022-09-28T13:23:04.559Z,1.08
2022-09-28T13:25:36.017Z,2.03
2022-09-28T13:28:05.264Z,0.93
2022-09-28T13:30:38.928Z,1.05
2022-09-28T13:33:08.281Z,1.08
2022-09-28T13:35:35.032Z,2.55
2022-09-28T13:38:30.311Z,0.88
2022-09-28T13:41:06.383Z,0.68
2022-09-28T13:43:38.531Z,1.30
2022-09-28T13:46:18.946Z,2.55
2022-09-28T13:49:03.751Z,0.52
2022-09-28T13:51:33.945Z,1.35
2022-09-28T13:54:30.231Z,0.47
2022-09-28T13:57:25.252Z,0.65
2022-09-28T14:00:00.183Z,0.93
2022-09-28T14:02:46.458Z,1.02
2022-09-28T14:05:44.020Z,0.20
2022-09-28T14:08:33.519Z,0.52
2022-09-28T14:11:25.297Z,1.67
2022-09-28T14:16:33.157Z,0.40
2022-09-28T14:19:15.078Z,1.50
2022-09-28T14:21:54.255Z,1.40
2022-09-28T14:24:47.346Z,0.55
2022-09-28T14:27:58.583Z,1.95
2022-09-28T14:30:33.339Z,2.83
2022-09-28T14:33:00.463Z,4.32
2022-09-28T14:35:43.248Z,1.58
2022-09-28T14:38:35.914Z,1.77
2022-09-28T14:41:10.546Z,1.92
2022-09-28T14:43:46.223Z,2.42
2022-09-28T14:46:12.886Z,1.95
2022-09-28T14:49:03.616Z,1.83
2022-09-28T14:51:30.357Z,2.25
2022-09-28T14:54:02.899Z,3.00
2022-09-28T14:56:38.060Z,1.60
2022-09-28T14:59:06.324Z,1.85
2022-09-28T15:01:35.848Z,1.35
2022-09-28T15:04:06.616Z,4.13
2022-09-28T15:06:51.089Z,2.88
2022-09-28T15:09:29.612Z,2.78
2022-09-28T15:12:13.767Z,2.75
2022-09-28T15:15:05.467Z,3.50
2022-09-28T15:17:39.241Z,2.92
2022-09-28T15:20:25.547Z,4.88
2022-09-28T15:22:57.228Z,4.90
2022-09-28T15:25:32.607Z,3.38
2022-09-28T15:28:16.933Z,5.95
2022-09-28T15:30:43.739Z,1.00
2022-09-28T15:33:52.300Z,2.38
2022-09-28T15:36:28.427Z,4.15
2022-09-28T15:39:05.270Z,2.53
2022-09-28T15:41:33.186Z,2.13
2022-09-28T15:44:25.209Z,4.55
2022-09-28T15:47:13.476Z,5.65
2022-09-28T15:50:00.462Z,2.78
2022-09-28T15:52:37.884Z,4.40
2022-09-28T15:55:27.021Z,4.93
2022-09-28T15:58:17.039Z,2.60
2022-09-28T16:00:46.279Z,5.63
2022-09-28T16:03:28.646Z,5.03
2022-09-28T16:05:58.355Z,4.38
2022-09-28T16:08:32.875Z,2.05
2022-09-28T16:11:27.662Z,1.17
2022-09-28T16:14:15.962Z,1.95
2022-09-28T16:16:48.224Z,2.08
2022-09-28T16:19:37.940Z,3.22
2022-09-28T16:22:07.864Z,1.80
2022-09-28T16:24:37.129Z,2.60
2022-09-28T16:27:28.647Z,2.75
2022-09-28T16:30:20.193Z,1.63
2022-09-28T16:33:06.644Z,1.83
2022-09-28T16:35:42.483Z,1.42
2022-09-28T16:38:14.421Z,1.13
2022-09-28T16:40:43.261Z,2.15
2022-09-28T16:43:26.503Z,0.50
2022-09-28T16:45:59.242Z,1.95
2022-09-28T16:48:28.848Z,2.72
2022-09-28T16:50:56.287Z,1.20
2022-09-28T16:53:42.027Z,1.27
2022-09-28T16:56:09.217Z,0.85
2022-09-28T16:58:36.517Z,1.48
2022-09-28T17:01:03.264Z,3.83
2022-09-28T17:03:30.254Z,1.73
2022-09-28T17:08:25.178Z,1.90
2022-09-28T17:11:15.529Z,3.25
2022-09-28T17:13:45.722Z,1.77
2022-09-28T17:16:32.274Z,3.10
2022-09-28T17:19:22.764Z,3.42
2022-09-28T17:21:51.122Z,3.67
2022-09-28T17:24:19.166Z,3.80
2022-09-28T17:26:49.092Z,6.07
2022-09-28T17:29:17.260Z,3.70
2022-09-28T17:31:45.125Z,5.55
2022-09-28T17:34:15.105Z,4.05
2022-09-28T17:36:43.094Z,4.72
2022-09-28T17:39:14.710Z,5.47
2022-09-28T17:41:41.686Z,2.88
2022-09-28T17:46:45.633Z,3.90
2022-09-28T17:49:12.986Z,7.38
2022-09-28T17:51:39.699Z,4.10
2022-09-28T17:54:08.015Z,10.02
2022-09-28T17:56:35.542Z,8.52
2022-09-28T17:59:05.338Z,5.47
2022-09-28T18:01:34.575Z,5.10
2022-09-28T18:04:03.999Z,5.53
2022-09-28T18:06:40.907Z,3.30
2022-09-28T18:09:09.094Z,4.68
2022-09-28T18:11:42.218Z,3.97
2022-09-28T18:14:11.219Z,5.22
2022-09-28T18:16:38.279Z,3.85
2022-09-28T18:19:05.036Z,3.70
2022-09-28T18:21:32.648Z,6.72
2022-09-28T18:23:59.319Z,7.65
2022-09-28T18:26:26.050Z,5.63
2022-09-28T18:28:56.388Z,5.40
2022-09-28T18:31:23.101Z,6.03
2022-09-28T18:33:50.040Z,6.18
2022-09-28T18:36:16.724Z,7.63
2022-09-28T18:38:43.403Z,8.90
2022-09-28T18:41:13.413Z,12.30
2022-09-28T18:43:40.314Z,9.90
2022-09-28T18:46:11.248Z,6.18
2022-09-28T18:48:40.244Z,6.07
2022-09-28T18:51:11.777Z,6.93
2022-09-28T18:53:39.234Z,5.03
2022-09-28T18:56:11.199Z,6.18
2022-09-28T18:58:39.499Z,5.45
2022-09-28T19:01:29.327Z,6.60
2022-09-28T19:04:01.606Z,6.80
2022-09-28T19:06:28.872Z,6.47
2022-09-28T19:08:56.174Z,5.88
2022-09-28T19:11:23.683Z,5.57
2022-09-28T19:13:50.731Z,5.20
2022-09-28T19:18:45.337Z,3.92
2022-09-28T19:21:14.022Z,4.03
2022-09-28T19:23:45.801Z,5.55
2022-09-28T19:26:21.525Z,10.40
2022-09-28T19:28:48.326Z,10.52
2022-09-28T19:31:15.550Z,7.80
2022-09-28T19:33:44.327Z,8.07
2022-09-28T19:36:14.348Z,8.45
2022-09-28T19:38:41.558Z,8.55
2022-09-28T19:41:39.522Z,8.68
2022-09-28T19:44:24.607Z,7.65
2022-09-28T19:46:56.811Z,11.05
2022-09-28T19:49:25.802Z,14.30
2022-09-28T19:52:15.013Z,8.25
2022-09-28T19:54:44.394Z,11.52
2022-09-28T19:57:12.466Z,10.80
2022-09-28T19:59:39.232Z,9.95
2022-09-28T20:02:07.797Z,9.82
2022-09-28T20:04:34.580Z,9.48
2022-09-28T20:07:01.890Z,12.35
2022-09-28T20:09:28.760Z,12.05
2022-09-28T20:11:55.589Z,10.63
2022-09-28T20:14:24.474Z,10.20
2022-09-28T20:16:53.174Z,9.70
2022-09-28T20:19:21.609Z,10.48
2022-09-28T20:21:49.138Z,8.15
2022-09-28T20:24:17.021Z,8.55
2022-09-28T20:26:44.573Z,9.48
2022-09-28T20:29:11.945Z,8.25
2022-09-28T20:31:38.672Z,10.10
2022-09-28T20:34:06.050Z,9.80
2022-09-28T20:36:33.137Z,10.93
2022-09-28T20:41:36.719Z,8.15
2022-09-28T20:44:06.311Z,9.68
2022-09-28T20:46:35.227Z,8.77
2022-09-28T20:49:02.392Z,9.88
2022-09-28T20:51:29.155Z,9.23
2022-09-28T20:53:57.971Z,12.23
2022-09-28T20:56:37.997Z,11.10
2022-09-28T20:59:09.754Z,8.45
2022-09-28T21:01:36.717Z,10.02
2022-09-28T21:04:08.299Z,9.73
2022-09-28T21:06:37.161Z,11.05
2022-09-28T21:09:05.239Z,9.50
2022-09-28T21:11:32.981Z,11.00
2022-09-28T21:14:01.570Z,8.80
2022-09-28T21:16:30.548Z,9.35
2022-09-28T21:18:57.780Z,10.02
2022-09-28T21:21:25.248Z,10.93
2022-09-28T21:23:53.156Z,12.48
2022-09-28T21:26:24.999Z,8.95
2022-09-28T21:28:56.077Z,13.35
2022-09-28T21:31:28.773Z,11.38
2022-09-28T21:33:56.576Z,8.77
2022-09-28T21:36:23.241Z,11.15
2022-09-28T21:38:49.987Z,8.25
2022-09-28T21:41:17.180Z,10.07
2022-09-28T21:43:45.378Z,8.98
2022-09-28T21:46:12.119Z,10.32
2022-09-28T21:48:38.847Z,11.13
2022-09-28T21:51:07.516Z,10.45
2022-09-28T21:53:36.264Z,9.73
2022-09-28T21:56:04.595Z,11.75
2022-09-28T21:58:33.217Z,10.88
2022-09-28T22:01:04.427Z,9.32
2022-09-28T22:03:32.478Z,9.30
2022-09-28T22:05:59.397Z,8.85
2022-09-28T22:08:27.052Z,10.38
2022-09-28T22:11:08.429Z,10.68
2022-09-28T22:13:46.667Z,9.68
2022-09-28T22:16:15.003Z,10.27
2022-09-28T22:18:41.976Z,11.07
2022-09-28T22:21:12.419Z,9.95
2022-09-28T22:23:39.687Z,9.30
2022-09-28T22:26:09.803Z,9.68
2022-09-28T22:28:37.624Z,10.95
2022-09-28T22:31:04.824Z,10.00
2022-09-28T22:33:31.542Z,9.35
2022-09-28T22:35:58.176Z,11.65
2022-09-28T22:38:25.094Z,11.95
2022-09-28T22:40:57.542Z,11.00
2022-09-28T22:43:25.552Z,13.38
2022-09-28T22:46:06.881Z,12.95
2022-09-28T22:48:34.688Z,11.50
2022-09-28T22:51:02.588Z,12.90
2022-09-28T22:53:29.367Z,11.07
2022-09-28T22:55:57.821Z,11.50
2022-09-28T22:58:24.596Z,10.25
2022-09-28T23:00:51.275Z,12.95
2022-09-28T23:03:18.072Z,12.20
2022-09-28T23:05:55.401Z,12.25
2022-09-28T23:08:23.635Z,13.55
2022-09-28T23:10:51.064Z,11.07
2022-09-28T23:13:18.457Z,11.40
2022-09-28T23:15:58.667Z,10.18
2022-09-28T23:18:28.780Z,12.57
2022-09-28T23:21:00.847Z,12.20
2022-09-28T23:23:28.209Z,16.05
2022-09-28T23:25:55.605Z,13.30
2022-09-28T23:28:24.179Z,11.13
2022-09-28T23:30:53.824Z,10.52
2022-09-28T23:33:21.765Z,9.70
2022-09-28T23:35:49.313Z,9.15
2022-09-28T23:38:18.156Z,8.63
2022-09-28T23:40:46.192Z,10.50
2022-09-28T23:43:13.330Z,12.88
2022-09-28T23:48:09.134Z,10.32
2022-09-28T23:50:35.795Z,10.93
2022-09-28T23:53:02.432Z,12.80
2022-09-28T23:55:29.199Z,11.13
2022-09-28T23:57:56.633Z,10.90
